Time;durP1;ratioP1;P1;durP2;ratioP2;P2;SDS_P1;SDS_P2;PMS_P1;PMS_P2;Temp;Humidity;BMP_temperature;BMP_pressure;BME280_temperature;BME280_humidity;BME280_pressure;Samples;Min_cycle;Max_cycle;Signal;HPM_P1;HPM_P2
2023/04/08 00:01:31;;;;;;;;;;;10.90;93.50;;;11.15;62.01;98948.88;5032577;28;109236;-77
2023/04/08 00:03:58;;;;;;;;;;;10.90;93.80;;;11.14;62.11;98949.19;5014693;28;107623;-77
2023/04/08 00:06:25;;;;;;;;;;;10.90;93.60;;;11.09;62.58;98954.81;5063008;27;124392;-76
2023/04/08 00:08:54;;;;;;;;;;;11.00;93.90;;;11.09;62.42;98947.34;5032069;28;123952;-77
2023/04/08 00:11:20;;;;;;;;;;;10.80;94.10;;;11.08;62.42;98955.97;5032971;28;109612;-80
2023/04/08 00:13:47;;;;;;;;;;;10.80;93.80;;;11.05;62.34;98958.22;5032668;28;109129;-81
2023/04/08 00:16:13;;;;;;;;;;;10.80;93.80;;;11.04;62.48;98967.66;5036484;27;124611;-78
2023/04/08 00:18:40;;;;;;;;;;;10.80;93.80;;;11.06;62.59;98965.38;5026901;28;123456;-76
2023/04/08 00:21:06;;;;;;;;;;;10.80;93.90;;;11.08;62.35;98958.72;5030530;28;110246;-76
2023/04/08 00:23:32;;;;;;;;;;;10.80;93.90;;;11.06;62.67;98970.91;5031197;28;109931;-77
2023/04/08 00:26:01;;;;;;;;;;;10.80;93.90;;;11.05;62.24;98958.22;5035529;27;124113;-76
2023/04/08 00:28:27;;;;;;;;;;;10.80;94.00;;;11.02;62.39;98953.31;5025551;28;123898;-77
2023/04/08 00:30:54;;;;;;;;;;;10.70;93.90;;;11.01;62.63;98964.66;5016458;28;108388;-77
2023/04/08 00:33:24;;;;;;;;;;;10.70;93.90;;;11.02;62.58;98958.03;5014144;28;108016;-77
2023/04/08 00:35:53;;;;;;;;;;;10.50;93.80;;;11.04;62.16;98967.66;5040663;27;123916;-77
2023/04/08 00:38:22;;;;;;;;;;;10.80;94.00;;;11.09;62.13;98968.66;5032059;28;124155;-78
2023/04/08 00:40:48;;;;;;;;;;;10.80;94.00;;;11.11;62.07;98958.09;5031258;28;109305;-77
2023/04/08 00:43:19;;;;;;;;;;;10.80;94.00;;;11.12;62.35;98968.03;5012796;28;108317;-79
2023/04/08 00:45:46;;;;;;;;;;;10.80;94.00;;;11.12;62.00;98966.06;5035378;27;124250;-78
2023/04/08 00:48:13;;;;;;;;;;;10.80;94.00;;;11.12;62.13;98979.09;5014602;28;123089;-79
2023/04/08 00:50:42;;;;;;;;;;;10.80;94.00;;;11.10;62.23;98973.06;5012145;28;109220;-78
2023/04/08 00:53:09;;;;;;;;;;;10.80;94.00;;;11.09;62.14;98974.19;5031030;28;108701;-77
2023/04/08 00:55:35;;;;;;;;;;;10.80;93.90;;;11.06;62.26;98978.38;5049246;27;123832;-78
2023/04/08 00:58:02;;;;;;;;;;;10.80;93.90;;;11.04;62.26;98978.72;5020378;27;124606;-77
2023/04/08 01:00:29;;;;;;;;;;;10.80;93.90;;;11.05;62.00;98983.09;5022477;27;108781;-79
2023/04/08 01:03:16;;;;;;;;;;;10.70;93.90;;;11.06;62.45;98984.72;5025516;28;108423;-75
2023/04/08 01:06:03;;;;;;;;;;;10.80;94.00;;;11.08;62.10;98973.38;5031953;27;123955;-77
2023/04/08 01:08:30;;;;;;;;;;;10.80;94.00;;;11.06;62.34;98968.13;5034354;27;123823;-79
2023/04/08 01:11:00;;;;;;;;;;;10.80;93.90;;;11.08;62.26;98972.56;5031528;28;110558;-76
2023/04/08 01:13:34;;;;;;;;;;;10.80;94.00;;;11.10;62.42;98967.53;5029557;28;109904;-76
2023/04/08 01:16:01;;;;;;;;;;;10.80;93.90;;;11.10;62.29;98975.84;5028969;27;124322;-77
2023/04/08 01:18:28;;;;;;;;;;;10.80;93.90;;;11.05;62.13;98974.00;5030704;28;123733;-77
2023/04/08 01:20:55;;;;;;;;;;;10.80;93.90;;;10.98;62.09;98974.41;5029266;28;108616;-77
2023/04/08 01:23:35;;;;;;;;;;;10.70;94.00;;;10.94;62.30;98973.41;5029837;28;108871;-78
2023/04/08 01:26:02;;;;;;;;;;;10.70;94.00;;;10.92;62.25;98972.88;5044550;27;123550;-78
2023/04/08 01:28:31;;;;;;;;;;;10.70;94.00;;;10.94;62.27;98978.94;5031737;27;122788;-77
2023/04/08 01:30:59;;;;;;;;;;;10.70;94.00;;;10.94;62.25;98978.94;5028893;28;108554;-76
2023/04/08 01:33:28;;;;;;;;;;;10.70;94.00;;;10.94;62.55;98975.34;5063583;27;108540;-78
2023/04/08 01:35:58;;;;;;;;;;;10.70;94.00;;;10.92;62.32;98975.66;5027877;27;124078;-77
2023/04/08 01:38:27;;;;;;;;;;;10.70;94.00;;;10.90;62.27;98977.91;5031527;28;123959;-79
2023/04/08 01:40:54;;;;;;;;;;;10.60;94.00;;;10.91;62.41;98974.03;5028336;28;109619;-78
2023/04/08 01:43:21;;;;;;;;;;;10.60;94.00;;;10.92;62.38;98970.13;5030373;28;108990;-78
2023/04/08 01:45:47;;;;;;;;;;;10.60;94.00;;;10.92;62.41;98967.34;5038729;27;123852;-77
2023/04/08 01:48:14;;;;;;;;;;;10.60;94.00;;;10.94;62.25;98973.41;5029180;27;124054;-77
2023/04/08 01:50:42;;;;;;;;;;;10.60;93.90;;;10.94;62.04;98975.34;5032668;27;109616;-77
2023/04/08 01:53:09;;;;;;;;;;;10.60;93.90;;;10.96;62.01;98976.69;5029650;28;108753;-76
2023/04/08 01:55:37;;;;;;;;;;;10.70;94.00;;;10.95;62.07;98972.25;5061568;27;124831;-77
2023/04/08 01:58:07;;;;;;;;;;;10.70;94.00;;;10.94;62.19;98976.16;5031515;27;123784;-77
2023/04/08 02:00:35;;;;;;;;;;;10.70;94.00;;;10.94;62.16;98967.88;5040874;27;110137;-78
2023/04/08 02:03:05;;;;;;;;;;;10.70;93.90;;;10.95;62.54;98968.69;5019583;27;108886;-77
2023/04/08 02:05:31;;;;;;;;;;;10.70;93.90;;;10.91;62.40;98974.03;5031565;27;123649;-76
2023/04/08 02:07:58;;;;;;;;;;;10.60;93.90;;;10.91;62.24;98979.56;5056613;27;123949;-77
2023/04/08 02:10:24;;;;;;;;;;;10.70;93.90;;;10.91;61.99;98978.72;5030557;28;109218;-77
2023/04/08 02:12:52;;;;;;;;;;;10.70;93.90;;;10.90;61.86;98980.66;5033372;28;108616;-76
2023/04/08 02:15:19;;;;;;;;;;;10.70;93.90;;;10.90;62.33;98977.09;5034893;27;124183;-76
2023/04/08 02:17:51;;;;;;;;;;;10.60;93.90;;;10.91;62.11;98976.78;5031906;28;124568;-77
2023/04/08 02:20:21;;;;;;;;;;;10.60;93.90;;;10.93;62.14;98977.28;5018892;28;108306;-77
2023/04/08 02:22:57;;;;;;;;;;;10.70;94.00;;;10.93;62.35;98982.81;5033104;28;108769;-77
2023/04/08 02:25:24;;;;;;;;;;;10.60;94.00;;;10.91;62.22;98974.03;5031737;27;124108;-77
2023/04/08 02:27:51;;;;;;;;;;;10.60;94.00;;;10.91;62.18;98975.94;5039704;27;123873;-79
2023/04/08 02:30:18;;;;;;;;;;;10.60;94.00;;;10.88;62.33;98973.81;5031909;27;109587;-76
2023/04/08 02:32:48;;;;;;;;;;;10.60;94.00;;;10.86;62.28;98976.91;5018150;28;108232;-77
2023/04/08 02:35:15;;;;;;;;;;;10.60;94.10;;;10.84;62.22;98976.38;5032021;27;124424;-77
2023/04/08 02:37:41;;;;;;;;;;;10.60;94.10;;;10.82;62.13;98981.41;5032804;28;123927;-77
2023/04/08 02:40:30;;;;;;;;;;;10.50;94.10;;;10.82;62.63;98975.88;5033209;28;109270;-77
2023/04/08 02:42:57;;;;;;;;;;;10.50;94.10;;;10.79;62.31;98976.50;5032078;28;109238;-77
2023/04/08 02:45:30;;;;;;;;;;;10.50;94.00;;;10.78;62.72;98972.09;5033589;27;124366;-76
2023/04/08 02:47:59;;;;;;;;;;;10.50;94.10;;;10.78;62.46;98977.63;5033808;28;122883;-77
2023/04/08 02:50:28;;;;;;;;;;;10.50;94.10;;;10.77;62.39;98978.75;5034199;28;109497;-77
2023/04/08 02:52:54;;;;;;;;;;;10.50;94.10;;;10.75;62.55;98976.31;5033408;28;109760;-77
2023/04/08 02:55:20;;;;;;;;;;;10.50;94.10;;;10.74;62.72;98979.38;5032741;27;124424;-77
2023/04/08 02:57:49;;;;;;;;;;;10.50;94.10;;;10.73;62.98;98977.75;5007882;28;122722;-77
2023/04/08 03:00:19;;;;;;;;;;;10.50;94.20;;;10.72;62.24;98976.09;5042812;27;110041;-77
2023/04/08 03:02:45;;;;;;;;;;;10.50;94.20;;;10.69;62.73;98966.47;5025881;28;108864;-78
2023/04/08 03:05:11;;;;;;;;;;;10.40;94.20;;;10.65;62.66;98975.69;5043032;27;123488;-76
2023/04/08 03:07:38;;;;;;;;;;;10.40;94.20;;;10.61;63.08;98976.31;5033665;28;123203;-76
2023/04/08 03:10:05;;;;;;;;;;;10.40;94.20;;;10.59;62.93;98975.81;5014393;28;108951;-77
2023/04/08 03:12:31;;;;;;;;;;;10.40;94.20;;;10.60;62.86;98973.84;5025294;28;107682;-76
2023/04/08 03:14:58;;;;;;;;;;;10.40;94.20;;;10.59;62.87;98975.81;5025153;27;123189;-76
2023/04/08 03:17:24;;;;;;;;;;;10.40;94.20;;;10.59;62.96;98969.47;5034357;28;123822;-78
2023/04/08 03:19:50;;;;;;;;;;;10.30;94.20;;;10.57;62.55;98975.28;5017484;28;109216;-76
2023/04/08 03:22:19;;;;;;;;;;;10.30;94.20;;;10.57;63.00;98975.28;5033375;28;108633;-76
2023/04/08 03:24:45;;;;;;;;;;;10.30;94.20;;;10.53;62.88;98974.28;5029681;27;124801;-76
2023/04/08 03:27:11;;;;;;;;;;;10.30;94.20;;;10.50;62.51;98969.34;5032966;27;123100;-77
2023/04/08 03:29:38;;;;;;;;;;;10.30;94.20;;;10.49;62.62;98978.78;5021457;28;109657;-77
2023/04/08 03:32:04;;;;;;;;;;;10.30;94.30;;;10.48;62.85;98970.81;5027224;28;108548;-77
2023/04/08 03:34:30;;;;;;;;;;;10.20;94.30;;;10.47;63.01;98983.78;5032054;27;124750;-77
2023/04/08 03:36:56;;;;;;;;;;;10.20;94.30;;;10.47;62.90;98975.50;5032561;28;124531;-77
2023/04/08 03:39:23;;;;;;;;;;;10.20;94.30;;;10.50;62.87;98979.59;5031212;28;110221;-77
2023/04/08 03:41:49;;;;;;;;;;;10.50;94.40;;;10.51;62.81;98987.56;5033984;27;108789;-77
2023/04/08 03:44:18;;;;;;;;;;;10.30;94.30;;;10.52;62.63;98982.88;5023670;27;123956;-77
2023/04/08 03:46:46;;;;;;;;;;;10.50;94.40;;;10.50;63.02;98991.44;5030780;28;123976;-76
2023/04/08 03:49:13;;;;;;;;;;;10.20;94.30;;;10.47;62.82;98989.31;5034634;28;109487;-76
2023/04/08 03:51:41;;;;;;;;;;;10.20;94.20;;;10.45;62.59;98986.06;5032562;28;108884;-77
2023/04/08 03:54:07;;;;;;;;;;;10.20;94.20;;;10.46;62.64;98990.44;5067993;27;123453;-77
2023/04/08 03:56:34;;;;;;;;;;;10.20;94.20;;;10.48;62.90;98990.16;5034329;27;123904;-78
2023/04/08 03:59:00;;;;;;;;;;;10.20;94.20;;;10.50;62.45;98979.59;5033575;27;109292;-76
2023/04/08 04:01:31;;;;;;;;;;;10.20;94.20;;;10.51;62.71;98992.28;5031527;28;108587;-76
2023/04/08 04:03:57;;;;;;;;;;;10.20;94.30;;;10.49;62.54;98989.81;5036430;27;124418;-77
2023/04/08 04:06:23;;;;;;;;;;;10.20;94.20;;;10.50;62.63;98990.63;5034782;27;123810;-76
2023/04/08 04:08:52;;;;;;;;;;;10.20;94.30;;;10.50;62.55;98996.16;5032271;28;110132;-77
2023/04/08 04:11:20;;;;;;;;;;;10.20;94.30;;;10.47;62.69;98985.72;5031039;28;108692;-78
2023/04/08 04:13:46;;;;;;;;;;;10.20;94.20;;;10.41;62.63;98982.25;5033124;27;124831;-78
2023/04/08 04:16:12;;;;;;;;;;;10.20;94.50;;;10.41;62.58;98990.53;5039632;27;124321;-76
2023/04/08 04:18:39;;;;;;;;;;;10.20;94.20;;;10.39;62.76;98990.03;5033371;28;108237;-77
2023/04/08 04:21:08;;;;;;;;;;;11.90;95.00;;;10.38;62.88;98982.88;5064409;27;108930;-77
2023/04/08 04:23:35;;;;;;;;;;;10.10;94.30;;;10.35;62.98;98983.50;5030355;27;124397;-77
2023/04/08 04:26:01;;;;;;;;;;;10.10;94.40;;;10.31;63.01;98982.44;5031955;28;123987;-77
2023/04/08 04:28:34;;;;;;;;;;;10.10;94.40;;;10.28;63.33;98985.81;5030147;28;110340;-82
2023/04/08 04:31:00;;;;;;;;;;;10.00;94.40;;;10.23;63.47;98986.72;5032899;28;109977;-77
2023/04/08 04:33:30;;;;;;;;;;;10.00;94.50;;;10.24;63.34;98993.06;5034125;27;123474;-77
2023/04/08 04:35:56;;;;;;;;;;;10.00;94.50;;;10.22;63.14;98996.13;5033227;28;123727;-79
2023/04/08 04:38:22;;;;;;;;;;;10.00;94.50;;;10.21;63.83;98999.19;5037752;28;108718;-79
2023/04/08 04:40:48;;;;;;;;;;;10.00;94.60;;;10.18;63.33;99001.44;5033663;28;109130;-78
2023/04/08 04:43:15;;;;;;;;;;;9.90;95.00;;;10.17;63.72;99004.50;5033601;28;123992;-77
2023/04/08 04:45:41;;;;;;;;;;;9.90;95.10;;;10.14;63.38;99003.16;5032622;27;123765;-78
2023/04/08 04:48:07;;;;;;;;;;;9.90;95.10;;;10.11;63.83;98994.69;5034642;28;109441;-77
2023/04/08 04:50:34;;;;;;;;;;;9.90;95.10;;;10.10;63.33;98995.78;5033473;28;108788;-79
2023/04/08 04:53:02;;;;;;;;;;;9.90;95.10;;;10.10;63.20;98996.63;5030881;28;124221;-77
2023/04/08 04:55:28;;;;;;;;;;;9.80;95.10;;;10.09;63.47;98997.75;5049564;27;122920;-79
2023/04/08 04:57:55;;;;;;;;;;;9.80;95.10;;;10.08;63.62;99001.63;5035010;28;108697;-77
2023/04/08 05:00:21;;;;;;;;;;;9.80;95.10;;;10.08;63.92;99009.09;5031749;27;108396;-78
2023/04/08 05:02:52;;;;;;;;;;;9.90;95.10;;;10.07;63.33;99008.25;5030747;28;124149;-77
2023/04/08 05:05:18;;;;;;;;;;;9.80;95.10;;;10.08;63.56;99023.72;5033357;27;123779;-77
2023/04/08 05:07:44;;;;;;;;;;;9.80;95.20;;;10.06;63.99;99023.19;5030828;28;109295;-77
2023/04/08 05:10:13;;;;;;;;;;;9.80;95.20;;;10.09;63.55;99024.53;5031563;28;108661;-78
2023/04/08 05:12:40;;;;;;;;;;;9.90;95.20;;;10.10;63.62;99023.41;5029304;28;124156;-78
2023/04/08 05:15:06;;;;;;;;;;;9.80;95.20;;;10.14;63.37;99027.22;5022477;28;124161;-78
2023/04/08 05:17:33;;;;;;;;;;;9.80;95.20;;;10.16;63.85;99030.50;5032696;27;110908;-78
2023/04/08 05:19:59;;;;;;;;;;;9.90;95.20;;;10.17;63.53;99027.41;5030958;28;109908;-77
2023/04/08 05:22:25;;;;;;;;;;;9.90;95.20;;;10.18;63.55;99036.50;5030978;28;124630;-78
2023/04/08 05:24:52;;;;;;;;;;;9.90;95.20;;;10.20;63.23;99025.97;5030360;27;123966;-78
2023/04/08 05:27:20;;;;;;;;;;;9.90;95.20;;;10.19;63.64;99024.34;5029492;28;108948;-77
2023/04/08 05:29:46;;;;;;;;;;;9.90;95.20;;;10.18;63.57;99034.59;5049258;27;108052;-77
2023/04/08 05:32:13;;;;;;;;;;;9.90;95.20;;;10.20;63.42;99031.50;5015199;28;124360;-78
2023/04/08 05:34:39;;;;;;;;;;;9.90;95.20;;;10.22;63.59;99034.78;5029382;27;124516;-79
2023/04/08 05:37:05;;;;;;;;;;;10.00;94.70;;;10.21;63.61;99044.19;5021749;27;111118;-77
2023/04/08 05:39:31;;;;;;;;;;;9.90;95.20;;;10.21;63.55;99044.19;5021888;27;108096;-78
2023/04/08 05:41:58;;;;;;;;;;;9.90;95.20;;;10.22;63.57;99047.78;5016713;28;123901;-77
2023/04/08 05:44:24;;;;;;;;;;;9.90;95.20;;;10.24;63.18;99054.63;5021914;27;123781;-78
2023/04/08 05:46:50;;;;;;;;;;;9.90;95.20;;;10.25;63.27;99047.16;5011922;28;109050;-79
2023/04/08 05:49:22;;;;;;;;;;;9.90;95.30;;;10.29;63.26;99051.81;5023171;28;108635;-78
2023/04/08 05:51:51;;;;;;;;;;;9.90;95.30;;;10.28;63.28;99055.69;5015447;28;124237;-77
2023/04/08 05:54:18;;;;;;;;;;;9.90;95.30;;;10.27;63.51;99047.69;5028195;27;124202;-77
2023/04/08 05:56:45;;;;;;;;;;;9.90;95.20;;;10.26;63.31;99049.63;5017879;27;108934;-88
2023/04/08 05:59:11;;;;;;;;;;;10.00;94.90;;;10.28;63.60;99060.38;5033443;27;108830;-78
2023/04/08 06:01:37;;;;;;;;;;;10.00;94.80;;;10.29;63.65;99062.03;5017294;27;125044;-78
2023/04/08 06:04:04;;;;;;;;;;;10.00;94.80;;;10.25;63.78;99070.06;5045964;27;123260;-79
2023/04/08 06:06:30;;;;;;;;;;;9.90;95.40;;;10.21;63.37;99071.81;5029212;27;110258;-78
2023/04/08 06:08:56;;;;;;;;;;;9.90;95.30;;;10.20;63.81;99075.69;5024410;27;109290;-81
2023/04/08 06:11:22;;;;;;;;;;;9.90;95.30;;;10.19;63.59;99068.53;5013857;28;124193;-79
2023/04/08 06:13:49;;;;;;;;;;;9.90;95.30;;;10.18;63.72;99064.97;5033387;27;123977;-78
2023/04/08 06:16:16;;;;;;;;;;;9.90;95.40;;;10.18;63.75;99070.47;5035686;27;109660;-78
2023/04/08 06:18:44;;;;;;;;;;;9.90;95.40;;;10.18;64.21;99070.47;5018106;27;107979;-78
2023/04/08 06:21:11;;;;;;;;;;;9.90;95.60;;;10.21;64.29;99076.50;5029592;28;124107;-78
2023/04/08 06:23:40;;;;;;;;;;;9.90;95.60;;;10.23;64.10;99077.00;5047180;27;122840;-78
2023/04/08 06:26:06;;;;;;;;;;;9.90;95.60;;;10.23;64.18;99079.78;5028861;28;109583;-78
2023/04/08 06:28:34;;;;;;;;;;;9.90;95.60;;;10.21;63.86;99085.63;5031804;27;107849;-77
2023/04/08 06:31:01;;;;;;;;;;;9.90;95.60;;;10.21;64.30;99079.25;5012086;28;123261;-77
2023/04/08 06:33:27;;;;;;;;;;;9.90;95.50;;;10.21;63.83;99093.06;5031170;28;123288;-77
2023/04/08 06:36:07;;;;;;;;;;;9.90;95.50;;;10.24;64.00;99086.97;5029280;28;109816;-77
2023/04/08 06:38:36;;;;;;;;;;;9.90;95.50;;;10.26;63.93;99084.69;5031322;28;107969;-80
2023/04/08 06:41:05;;;;;;;;;;;9.90;95.60;;;10.27;64.12;99086.34;5029201;28;124067;-78
2023/04/08 06:43:36;;;;;;;;;;;9.90;95.60;;;10.28;63.66;99094.34;5061010;27;123714;-78
2023/04/08 06:46:02;;;;;;;;;;;10.00;95.10;;;10.30;63.72;99102.34;5037968;27;109395;-77
2023/04/08 06:48:31;;;;;;;;;;;10.00;95.10;;;10.29;63.84;99095.16;5033639;28;108754;-78
2023/04/08 06:50:59;;;;;;;;;;;10.00;95.10;;;10.28;63.81;99090.78;5032106;28;124273;-77
2023/04/08 06:53:28;;;;;;;;;;;10.00;95.10;;;10.28;64.04;99105.38;5051744;27;123154;-78
2023/04/08 06:55:54;;;;;;;;;;;10.00;95.10;;;10.32;63.96;99105.63;5032975;27;110441;-79
2023/04/08 06:58:21;;;;;;;;;;;10.00;95.10;;;10.32;63.80;99102.88;5033065;27;109899;-79
2023/04/08 07:00:47;;;;;;;;;;;10.00;95.10;;;10.30;63.77;99107.88;5030887;27;124200;-78
2023/04/08 07:03:14;;;;;;;;;;;10.00;95.10;;;10.27;63.74;99100.16;5032530;28;124109;-78
2023/04/08 07:05:41;;;;;;;;;;;10.00;95.10;;;10.26;63.67;99101.25;5065537;27;109550;-77
2023/04/08 07:08:07;;;;;;;;;;;10.00;95.10;;;10.28;63.46;99110.91;5035739;27;108914;-80
2023/04/08 07:10:34;;;;;;;;;;;10.00;95.10;;;10.30;63.99;99110.63;5065419;27;124623;-79
2023/04/08 07:13:03;;;;;;;;;;;10.00;95.10;;;10.29;63.98;99108.97;5051335;27;124697;-79
2023/04/08 07:15:29;;;;;;;;;;;10.00;95.10;;;10.30;63.88;99105.09;5034425;27;109479;-79
2023/04/08 07:17:56;;;;;;;;;;;10.00;95.10;;;10.32;63.49;99111.16;5031233;28;109213;-78
2023/04/08 07:20:22;;;;;;;;;;;10.00;95.10;;;10.30;63.80;99122.47;5032075;28;124270;-78
2023/04/08 07:22:49;;;;;;;;;;;10.00;95.20;;;10.33;63.89;99126.59;5030705;28;124149;-78
2023/04/08 07:25:15;;;;;;;;;;;10.10;95.20;;;10.36;63.94;99123.22;5035121;28;109389;-78
2023/04/08 07:27:43;;;;;;;;;;;10.10;95.20;;;10.38;63.82;99127.31;5032148;28;109013;-79
2023/04/08 07:30:10;;;;;;;;;;;10.10;95.20;;;10.42;63.58;99122.00;5029271;27;124704;-78
2023/04/08 07:32:39;;;;;;;;;;;10.10;95.20;;;10.49;63.74;99122.44;5032723;27;124398;-80
2023/04/08 07:35:06;;;;;;;;;;;10.10;95.20;;;10.53;63.59;99115.19;5032066;28;109404;-80
2023/04/08 07:37:32;;;;;;;;;;;10.20;95.20;;;10.59;63.52;99116.72;5017006;28;108099;-78
2023/04/08 07:39:59;;;;;;;;;;;10.20;95.10;;;10.61;62.84;99120.00;5050776;27;123477;-77
2023/04/08 07:42:27;;;;;;;;;;;10.20;95.10;;;10.64;62.89;99126.03;5033518;28;123031;-78
2023/04/08 07:44:54;;;;;;;;;;;10.30;95.00;;;10.66;63.39;99124.59;5030892;28;110574;-78
2023/04/08 07:47:20;;;;;;;;;;;11.80;95.60;;;10.72;62.80;99125.31;5018989;28;108849;-80
2023/04/08 07:49:47;;;;;;;;;;;10.40;94.90;;;10.77;62.52;99127.97;5032202;27;123477;-78
2023/04/08 07:52:13;;;;;;;;;;;10.40;94.90;;;10.82;62.89;99125.94;5032095;28;124546;-78
2023/04/08 07:54:39;;;;;;;;;;;10.40;94.80;;;10.86;62.07;99136.41;5014791;28;108661;-79
2023/04/08 07:57:06;;;;;;;;;;;10.50;94.70;;;10.87;62.26;99127.78;5033000;27;108550;-75
2023/04/08 07:59:34;;;;;;;;;;;10.50;94.60;;;10.88;61.98;99132.22;5028982;27;124042;-75
2023/04/08 08:02:03;;;;;;;;;;;10.50;94.50;;;10.92;61.80;99126.88;5014734;28;124046;-82
2023/04/08 08:04:30;;;;;;;;;;;10.50;94.50;;;10.94;61.74;99122.69;5012507;28;109148;-73
2023/04/08 08:06:56;;;;;;;;;;;10.50;94.30;;;10.96;61.37;99127.88;5030193;28;108778;-75
2023/04/08 08:09:22;;;;;;;;;;;10.60;94.30;;;10.99;61.29;99133.66;5028253;28;124042;-75
2023/04/08 08:11:52;;;;;;;;;;;10.60;94.20;;;11.05;60.63;99134.38;5029276;28;123778;-72
2023/04/08 08:14:18;;;;;;;;;;;10.60;94.10;;;11.08;61.13;99133.75;5012932;28;109911;-76
2023/04/08 08:16:44;;;;;;;;;;;10.70;94.00;;;11.09;60.48;99142.84;5015233;28;108470;-77
2023/04/08 08:19:12;;;;;;;;;;;10.70;93.80;;;11.09;60.36;99131.78;5028467;28;124163;-77
2023/04/08 08:21:39;;;;;;;;;;;10.70;93.70;;;11.10;60.58;99136.22;5015247;28;123774;-79
2023/04/08 08:24:05;;;;;;;;;;;10.70;93.70;;;11.15;60.55;99144.38;5028414;28;109779;-76
2023/04/08 08:26:37;;;;;;;;;;;10.70;93.70;;;11.19;60.52;99149.00;5031120;28;108788;-76
2023/04/08 08:29:05;;;;;;;;;;;10.80;93.70;;;11.21;59.80;99143.16;5027345;28;124230;-81
2023/04/08 08:31:31;;;;;;;;;;;10.80;93.50;;;11.25;60.09;99144.19;5027764;28;124030;-89
2023/04/08 08:34:00;;;;;;;;;;;10.80;93.50;;;11.32;59.77;99149.31;5027036;27;110140;-75
2023/04/08 08:36:26;;;;;;;;;;;10.90;93.50;;;11.34;59.46;99142.34;5036110;27;109770;-74
2023/04/08 08:38:53;;;;;;;;;;;11.90;93.80;;;11.35;59.47;99155.03;5030495;28;124505;-74
2023/04/08 08:41:22;;;;;;;;;;;11.00;93.30;;;11.35;59.61;99156.97;5029455;28;123490;-75
2023/04/08 08:43:48;;;;;;;;;;;12.70;93.90;;;11.37;59.18;99160.28;5030991;28;109571;-76
2023/04/08 08:46:16;;;;;;;;;;;11.00;93.00;;;11.43;59.31;99157.06;5063654;27;108930;-76
2023/04/08 08:48:50;;;;;;;;;;;11.10;93.10;;;11.48;59.04;99154.19;5063880;27;124183;-74
2023/04/08 08:51:18;;;;;;;;;;;11.10;92.90;;;11.53;58.65;99155.22;5029803;28;124168;-75
2023/04/08 08:53:45;;;;;;;;;;;11.10;92.70;;;11.57;58.24;99147.94;5029549;28;109262;-75
2023/04/08 08:56:11;;;;;;;;;;;11.20;92.50;;;11.60;57.78;99145.34;5030793;28;108849;-75
2023/04/08 08:58:40;;;;;;;;;;;11.20;92.40;;;11.67;58.11;99147.72;5026020;28;124186;-70
2023/04/08 09:01:36;;;;;;;;;;;11.20;92.40;;;11.76;58.23;99154.13;5042268;27;124040;-70
2023/04/08 09:04:10;;;;;;;;;;;11.30;92.50;;;11.84;58.29;99158.94;5028199;27;109088;-70
2023/04/08 09:06:39;;;;;;;;;;;11.40;92.50;;;11.93;57.90;99154.34;5027056;27;107971;-70
2023/04/08 09:09:09;;;;;;;;;;;11.50;92.40;;;12.01;57.55;99166.63;5025708;28;124394;-72
2023/04/08 09:11:42;;;;;;;;;;;11.50;92.30;;;12.08;56.96;99160.63;5027787;28;123889;-70
2023/04/08 09:14:18;;;;;;;;;;;11.60;92.00;;;12.15;56.54;99155.47;5036922;27;109384;-70
2023/04/08 09:16:46;;;;;;;;;;;11.60;91.90;;;12.23;56.58;99156.69;5022076;28;108711;-70
2023/04/08 09:19:13;;;;;;;;;;;11.70;91.70;;;12.31;56.33;99158.69;5030391;27;124174;-69
2023/04/08 09:21:41;;;;;;;;;;;11.80;91.60;;;12.38;56.04;99159.91;5032915;27;124060;-70
2023/04/08 09:24:08;;;;;;;;;;;11.90;91.30;;;12.47;55.68;99161.91;5028498;28;110261;-69
2023/04/08 09:26:36;;;;;;;;;;;11.90;91.30;;;12.59;56.31;99162.94;5031971;28;108687;-70
2023/04/08 09:29:07;;;;;;;;;;;12.00;91.70;;;12.73;55.12;99171.16;5029812;28;124931;-74
2023/04/08 09:31:40;;;;;;;;;;;12.20;91.40;;;12.79;53.83;99169.94;5031302;28;123630;-75
2023/04/08 09:34:11;;;;;;;;;;;13.30;91.00;;;12.77;53.38;99165.84;5029496;28;109578;-75
2023/04/08 09:36:37;;;;;;;;;;;12.30;90.00;;;12.76;51.69;99159.47;5048030;27;107949;-76
2023/04/08 09:39:04;;;;;;;;;;;12.20;87.50;;;12.79;52.44;99160.78;5032026;28;124098;-76
2023/04/08 09:41:34;;;;;;;;;;;12.30;88.70;;;12.86;52.59;99158.38;5048029;27;122816;-75
2023/04/08 09:44:03;;;;;;;;;;;12.40;89.10;;;12.91;51.63;99160.19;5032204;28;108510;-75
2023/04/08 09:46:40;;;;;;;;;;;12.40;87.30;;;12.94;51.68;99154.00;5023167;28;108844;-75
2023/04/08 09:49:11;;;;;;;;;;;12.50;87.50;;;13.00;51.73;99159.09;5028523;28;124851;-76
2023/04/08 09:52:02;;;;;;;;;;;12.50;87.60;;;13.05;50.32;99160.91;5041256;27;123928;-75
2023/04/08 09:55:06;;;;;;;;;;;12.60;86.20;;;13.04;48.92;99164.81;5032589;27;109512;-75
2023/04/08 09:57:41;;;;;;;;;;;12.60;83.40;;;13.02;47.69;99150.44;5022773;28;108280;-75
2023/04/08 10:00:14;;;;;;;;;;;12.60;81.60;;;12.99;46.38;99156.63;5015393;27;124102;-74
2023/04/08 10:02:53;;;;;;;;;;;12.60;79.20;;;13.00;46.81;99147.16;5029284;28;124104;-73
2023/04/08 10:05:20;;;;;;;;;;;12.60;79.50;;;13.03;46.00;99164.00;5025446;27;109648;-74
2023/04/08 10:07:47;;;;;;;;;;;12.60;78.90;;;13.08;46.01;99162.22;5027217;27;107443;-74
2023/04/08 10:10:14;;;;;;;;;;;12.60;78.70;;;13.10;46.57;99160.75;5023672;27;124099;-74
2023/04/08 10:12:42;;;;;;;;;;;12.60;79.60;;;13.15;45.70;99152.28;5015927;27;124305;-74
2023/04/08 10:15:22;;;;;;;;;;;12.70;78.40;;;13.18;45.39;99157.19;5053073;27;110184;-75
2023/04/08 10:17:48;;;;;;;;;;;12.70;77.40;;;13.22;45.67;99162.94;5023793;28;109302;-74
2023/04/08 10:20:33;;;;;;;;;;;12.80;78.10;;;13.32;45.75;99154.31;5048888;27;124013;-76
2023/04/08 10:23:00;;;;;;;;;;;12.90;78.30;;;13.38;44.89;99157.75;5035280;27;124004;-74
2023/04/08 10:25:30;;;;;;;;;;;12.90;77.10;;;13.43;44.13;99155.69;5065040;27;108473;-73
2023/04/08 10:27:57;;;;;;;;;;;13.00;76.00;;;13.45;44.19;99153.38;5018463;28;108999;-74
2023/04/08 10:30:26;;;;;;;;;;;13.00;75.60;;;13.50;44.63;99151.63;5044201;27;123770;-74
2023/04/08 10:32:58;;;;;;;;;;;13.00;76.20;;;13.55;44.89;99163.38;5017304;28;123908;-73
2023/04/08 10:35:34;;;;;;;;;;;13.10;76.90;;;13.58;44.77;99162.72;5019045;28;109870;-74
2023/04/08 10:38:00;;;;;;;;;;;13.10;76.20;;;13.58;43.57;99154.41;5017182;28;107824;-74
2023/04/08 10:40:28;;;;;;;;;;;13.20;74.40;;;13.51;42.89;99156.81;5026281;28;124147;-74
2023/04/08 10:42:56;;;;;;;;;;;13.20;73.10;;;13.48;43.51;99163.03;5061334;27;124021;-74
2023/04/08 10:45:22;;;;;;;;;;;13.20;73.80;;;13.39;43.22;99159.41;5024313;28;109443;-74
2023/04/08 10:47:52;;;;;;;;;;;13.10;73.00;;;13.33;42.80;99160.72;5034438;27;108498;-74
2023/04/08 10:50:19;;;;;;;;;;;13.10;72.40;;;13.30;43.70;99148.31;5020391;27;124383;-74
2023/04/08 10:52:52;;;;;;;;;;;13.00;73.50;;;13.33;43.90;99157.94;5033697;27;124160;-78
2023/04/08 10:55:26;;;;;;;;;;;13.00;74.00;;;13.34;43.61;99163.16;5030942;28;109641;-75
2023/04/08 10:57:55;;;;;;;;;;;13.00;73.70;;;13.35;43.96;99161.19;5050744;27;107866;-75
2023/04/08 11:00:38;;;;;;;;;;;13.10;74.50;;;13.38;44.10;99155.00;5022334;28;124608;-77
2023/04/08 11:03:12;;;;;;;;;;;13.10;74.40;;;13.37;43.41;99161.69;5015834;28;122790;-75
2023/04/08 11:05:39;;;;;;;;;;;13.10;73.00;;;13.35;42.90;99158.41;5012437;27;109640;-75
2023/04/08 11:08:07;;;;;;;;;;;13.10;72.10;;;13.32;42.13;99165.44;5034785;27;109175;-74
2023/04/08 11:10:37;;;;;;;;;;;13.00;70.90;;;13.31;42.53;99161.03;5027631;28;123636;-75
2023/04/08 11:13:07;;;;;;;;;;;13.00;71.50;;;13.33;42.74;99164.31;5064070;27;124511;-74
2023/04/08 11:15:36;;;;;;;;;;;13.00;72.10;;;13.38;42.49;99152.22;5058335;27;109340;-78